sensor_id;sensor_type;location;lat;lon;timestamp;P1;durP1;ratioP1;P2;durP2;ratioP2
4738;SDS011;2383;48.632;10.156;2023-06-04T00:00:48;9.77;;;6.40;;
4738;SDS011;2383;48.632;10.156;2023-06-04T00:04:50;10.20;;;6.68;;
4738;SDS011;2383;48.632;10.156;2023-06-04T00:08:53;10.07;;;7.00;;
4738;SDS011;2383;48.632;10.156;2023-06-04T00:12:56;11.60;;;6.68;;
4738;SDS011;2383;48.632;10.156;2023-06-04T00:16:58;9.05;;;6.32;;
4738;SDS011;2383;48.632;10.156;2023-06-04T00:21:00;9.95;;;6.30;;
4738;SDS011;2383;48.632;10.156;2023-06-04T00:25:02;6.70;;;5.05;;
4738;SDS011;2383;48.632;10.156;2023-06-04T00:29:05;6.88;;;4.88;;
4738;SDS011;2383;48.632;10.156;2023-06-04T00:33:07;7.90;;;4.38;;
4738;SDS011;2383;48.632;10.156;2023-06-04T00:37:09;9.02;;;5.07;;
4738;SDS011;2383;48.632;10.156;2023-06-04T00:41:11;8.48;;;4.97;;
4738;SDS011;2383;48.632;10.156;2023-06-04T00:45:14;6.70;;;5.07;;
4738;SDS011;2383;48.632;10.156;2023-06-04T00:49:17;5.93;;;4.32;;
4738;SDS011;2383;48.632;10.156;2023-06-04T00:53:20;13.45;;;4.50;;
4738;SDS011;2383;48.632;10.156;2023-06-04T00:57:24;6.40;;;4.90;;
4738;SDS011;2383;48.632;10.156;2023-06-04T01:06:21;7.40;;;4.82;;
4738;SDS011;2383;48.632;10.156;2023-06-04T01:10:14;6.30;;;5.03;;
4738;SDS011;2383;48.632;10.156;2023-06-04T01:14:17;10.65;;;5.53;;
4738;SDS011;2383;48.632;10.156;2023-06-04T01:18:26;6.07;;;4.78;;
4738;SDS011;2383;48.632;10.156;2023-06-04T01:22:32;7.22;;;4.45;;
4738;SDS011;2383;48.632;10.156;2023-06-04T01:26:38;8.85;;;5.38;;
4738;SDS011;2383;48.632;10.156;2023-06-04T01:30:41;6.45;;;5.03;;
4738;SDS011;2383;48.632;10.156;2023-06-04T01:34:47;9.27;;;4.78;;
4738;SDS011;2383;48.632;10.156;2023-06-04T01:38:50;5.25;;;4.00;;
4738;SDS011;2383;48.632;10.156;2023-06-04T01:42:52;9.57;;;4.78;;
4738;SDS011;2383;48.632;10.156;2023-06-04T01:46:54;7.10;;;4.60;;
4738;SDS011;2383;48.632;10.156;2023-06-04T01:50:57;6.13;;;4.78;;
4738;SDS011;2383;48.632;10.156;2023-06-04T01:54:59;6.38;;;4.07;;
4738;SDS011;2383;48.632;10.156;2023-06-04T01:59:01;7.28;;;4.57;;
4738;SDS011;2383;48.632;10.156;2023-06-04T02:03:04;9.73;;;4.53;;
4738;SDS011;2383;48.632;10.156;2023-06-04T02:07:06;6.20;;;4.53;;
4738;SDS011;2383;48.632;10.156;2023-06-04T02:11:12;6.55;;;4.10;;
4738;SDS011;2383;48.632;10.156;2023-06-04T02:15:14;4.90;;;4.20;;
4738;SDS011;2383;48.632;10.156;2023-06-04T02:19:16;5.90;;;4.20;;
4738;SDS011;2383;48.632;10.156;2023-06-04T02:23:20;6.03;;;4.60;;
4738;SDS011;2383;48.632;10.156;2023-06-04T02:27:22;8.93;;;5.25;;
4738;SDS011;2383;48.632;10.156;2023-06-04T02:31:24;5.40;;;3.92;;
4738;SDS011;2383;48.632;10.156;2023-06-04T02:35:30;5.47;;;4.43;;
4738;SDS011;2383;48.632;10.156;2023-06-04T02:39:33;6.22;;;4.38;;
4738;SDS011;2383;48.632;10.156;2023-06-04T02:43:36;7.85;;;4.28;;
4738;SDS011;2383;48.632;10.156;2023-06-04T02:47:38;8.05;;;4.38;;
4738;SDS011;2383;48.632;10.156;2023-06-04T02:51:40;6.40;;;4.22;;
4738;SDS011;2383;48.632;10.156;2023-06-04T02:55:43;7.32;;;4.05;;
4738;SDS011;2383;48.632;10.156;2023-06-04T02:59:45;7.55;;;4.10;;
4738;SDS011;2383;48.632;10.156;2023-06-04T03:03:47;5.55;;;4.15;;
4738;SDS011;2383;48.632;10.156;2023-06-04T03:07:49;11.10;;;4.22;;
4738;SDS011;2383;48.632;10.156;2023-06-04T03:11:51;7.70;;;4.55;;
4738;SDS011;2383;48.632;10.156;2023-06-04T03:15:55;7.60;;;4.60;;
4738;SDS011;2383;48.632;10.156;2023-06-04T03:19:58;6.40;;;4.40;;
4738;SDS011;2383;48.632;10.156;2023-06-04T03:24:00;7.63;;;4.30;;
4738;SDS011;2383;48.632;10.156;2023-06-04T03:28:02;6.00;;;4.07;;
4738;SDS011;2383;48.632;10.156;2023-06-04T03:32:05;6.70;;;4.10;;
4738;SDS011;2383;48.632;10.156;2023-06-04T03:36:07;5.90;;;3.85;;
4738;SDS011;2383;48.632;10.156;2023-06-04T03:40:10;6.57;;;4.25;;
4738;SDS011;2383;48.632;10.156;2023-06-04T03:44:18;4.88;;;4.18;;
4738;SDS011;2383;48.632;10.156;2023-06-04T03:48:21;7.25;;;4.15;;
4738;SDS011;2383;48.632;10.156;2023-06-04T03:52:23;6.65;;;4.57;;
4738;SDS011;2383;48.632;10.156;2023-06-04T03:56:26;7.63;;;4.43;;
4738;SDS011;2383;48.632;10.156;2023-06-04T04:00:29;6.95;;;4.22;;
4738;SDS011;2383;48.632;10.156;2023-06-04T04:04:34;5.63;;;4.07;;
4738;SDS011;2383;48.632;10.156;2023-06-04T04:08:37;6.97;;;4.40;;
4738;SDS011;2383;48.632;10.156;2023-06-04T04:12:43;5.90;;;3.92;;
4738;SDS011;2383;48.632;10.156;2023-06-04T04:16:46;6.03;;;4.07;;
4738;SDS011;2383;48.632;10.156;2023-06-04T04:20:49;10.50;;;4.07;;
4738;SDS011;2383;48.632;10.156;2023-06-04T04:24:51;5.68;;;3.88;;
4738;SDS011;2383;48.632;10.156;2023-06-04T04:28:53;5.50;;;4.10;;
4738;SDS011;2383;48.632;10.156;2023-06-04T04:33:02;4.70;;;4.00;;
4738;SDS011;2383;48.632;10.156;2023-06-04T04:37:12;7.13;;;3.90;;
4738;SDS011;2383;48.632;10.156;2023-06-04T04:41:14;5.32;;;3.83;;
4738;SDS011;2383;48.632;10.156;2023-06-04T04:45:16;5.93;;;4.20;;
4738;SDS011;2383;48.632;10.156;2023-06-04T04:49:20;7.90;;;4.07;;
4738;SDS011;2383;48.632;10.156;2023-06-04T04:53:23;6.97;;;4.00;;
4738;SDS011;2383;48.632;10.156;2023-06-04T04:57:25;5.20;;;3.80;;
4738;SDS011;2383;48.632;10.156;2023-06-04T05:01:29;4.63;;;3.90;;
4738;SDS011;2383;48.632;10.156;2023-06-04T05:05:32;9.00;;;4.18;;
4738;SDS011;2383;48.632;10.156;2023-06-04T05:09:37;5.72;;;3.40;;
4738;SDS011;2383;48.632;10.156;2023-06-04T05:13:39;4.93;;;3.35;;
4738;SDS011;2383;48.632;10.156;2023-06-04T05:17:44;3.42;;;3.08;;
4738;SDS011;2383;48.632;10.156;2023-06-04T05:21:49;4.05;;;3.00;;
4738;SDS011;2383;48.632;10.156;2023-06-04T05:25:53;9.13;;;3.20;;
4738;SDS011;2383;48.632;10.156;2023-06-04T05:29:56;3.85;;;3.10;;
4738;SDS011;2383;48.632;10.156;2023-06-04T05:34:01;7.75;;;3.15;;
4738;SDS011;2383;48.632;10.156;2023-06-04T05:38:07;3.42;;;2.90;;
4738;SDS011;2383;48.632;10.156;2023-06-04T05:42:09;3.35;;;2.58;;
4738;SDS011;2383;48.632;10.156;2023-06-04T05:46:12;4.65;;;2.72;;
4738;SDS011;2383;48.632;10.156;2023-06-04T05:50:16;8.48;;;2.67;;
4738;SDS011;2383;48.632;10.156;2023-06-04T05:54:18;4.10;;;2.70;;
4738;SDS011;2383;48.632;10.156;2023-06-04T05:58:22;4.22;;;2.40;;
4738;SDS011;2383;48.632;10.156;2023-06-04T06:02:24;3.80;;;2.42;;
4738;SDS011;2383;48.632;10.156;2023-06-04T06:06:27;8.13;;;2.63;;
4738;SDS011;2383;48.632;10.156;2023-06-04T06:10:30;5.35;;;2.00;;
4738;SDS011;2383;48.632;10.156;2023-06-04T06:14:33;3.72;;;2.50;;
4738;SDS011;2383;48.632;10.156;2023-06-04T06:18:36;3.20;;;2.00;;
4738;SDS011;2383;48.632;10.156;2023-06-04T06:22:38;4.32;;;2.38;;
4738;SDS011;2383;48.632;10.156;2023-06-04T06:26:41;4.13;;;2.22;;
4738;SDS011;2383;48.632;10.156;2023-06-04T06:30:46;3.10;;;2.42;;
4738;SDS011;2383;48.632;10.156;2023-06-04T06:34:49;5.00;;;2.50;;
4738;SDS011;2383;48.632;10.156;2023-06-04T06:38:51;4.70;;;2.42;;
4738;SDS011;2383;48.632;10.156;2023-06-04T06:42:54;4.63;;;2.30;;
4738;SDS011;2383;48.632;10.156;2023-06-04T06:46:55;5.60;;;2.17;;
4738;SDS011;2383;48.632;10.156;2023-06-04T06:50:58;3.75;;;2.05;;
4738;SDS011;2383;48.632;10.156;2023-06-04T06:55:00;6.50;;;2.42;;
4738;SDS011;2383;48.632;10.156;2023-06-04T06:59:02;4.15;;;2.63;;
4738;SDS011;2383;48.632;10.156;2023-06-04T07:03:04;4.28;;;2.30;;
4738;SDS011;2383;48.632;10.156;2023-06-04T07:07:06;6.05;;;2.40;;
4738;SDS011;2383;48.632;10.156;2023-06-04T07:11:08;3.88;;;2.20;;
4738;SDS011;2383;48.632;10.156;2023-06-04T07:15:13;3.60;;;2.10;;
4738;SDS011;2383;48.632;10.156;2023-06-04T07:19:15;3.85;;;2.45;;
4738;SDS011;2383;48.632;10.156;2023-06-04T07:23:18;3.85;;;2.40;;
4738;SDS011;2383;48.632;10.156;2023-06-04T07:27:20;9.38;;;2.83;;
4738;SDS011;2383;48.632;10.156;2023-06-04T07:31:23;3.33;;;2.20;;
4738;SDS011;2383;48.632;10.156;2023-06-04T07:35:25;5.65;;;2.60;;
4738;SDS011;2383;48.632;10.156;2023-06-04T07:39:27;5.50;;;2.67;;
4738;SDS011;2383;48.632;10.156;2023-06-04T07:43:29;4.50;;;2.58;;
4738;SDS011;2383;48.632;10.156;2023-06-04T07:47:32;5.10;;;2.78;;
4738;SDS011;2383;48.632;10.156;2023-06-04T07:51:34;4.88;;;2.72;;
4738;SDS011;2383;48.632;10.156;2023-06-04T07:55:36;6.47;;;2.25;;
4738;SDS011;2383;48.632;10.156;2023-06-04T07:59:38;5.07;;;2.50;;
4738;SDS011;2383;48.632;10.156;2023-06-04T08:03:40;9.52;;;2.67;;
4738;SDS011;2383;48.632;10.156;2023-06-04T08:07:43;6.80;;;2.42;;
4738;SDS011;2383;48.632;10.156;2023-06-04T08:11:45;6.05;;;2.40;;
4738;SDS011;2383;48.632;10.156;2023-06-04T08:15:47;4.65;;;2.60;;
4738;SDS011;2383;48.632;10.156;2023-06-04T08:19:49;4.72;;;1.98;;
4738;SDS011;2383;48.632;10.156;2023-06-04T08:23:52;5.13;;;2.25;;
4738;SDS011;2383;48.632;10.156;2023-06-04T08:27:54;10.55;;;2.88;;
4738;SDS011;2383;48.632;10.156;2023-06-04T08:31:58;4.80;;;2.20;;
4738;SDS011;2383;48.632;10.156;2023-06-04T08:36:00;3.13;;;2.10;;
4738;SDS011;2383;48.632;10.156;2023-06-04T08:40:02;7.05;;;2.88;;
4738;SDS011;2383;48.632;10.156;2023-06-04T08:44:06;3.90;;;2.30;;
4738;SDS011;2383;48.632;10.156;2023-06-04T08:48:11;4.68;;;2.67;;
4738;SDS011;2383;48.632;10.156;2023-06-04T08:52:14;2.72;;;2.40;;
4738;SDS011;2383;48.632;10.156;2023-06-04T08:56:16;4.47;;;2.42;;
4738;SDS011;2383;48.632;10.156;2023-06-04T09:00:19;5.95;;;2.75;;
4738;SDS011;2383;48.632;10.156;2023-06-04T09:04:22;6.20;;;3.03;;
4738;SDS011;2383;48.632;10.156;2023-06-04T09:08:24;3.28;;;2.42;;
4738;SDS011;2383;48.632;10.156;2023-06-04T09:12:28;5.28;;;2.97;;
4738;SDS011;2383;48.632;10.156;2023-06-04T09:16:47;4.03;;;2.72;;
4738;SDS011;2383;48.632;10.156;2023-06-04T09:21:05;7.50;;;2.80;;
4738;SDS011;2383;48.632;10.156;2023-06-04T09:25:18;4.28;;;2.38;;
4738;SDS011;2383;48.632;10.156;2023-06-04T09:29:21;4.13;;;2.70;;
4738;SDS011;2383;48.632;10.156;2023-06-04T09:33:23;5.50;;;2.60;;
4738;SDS011;2383;48.632;10.156;2023-06-04T09:37:27;5.90;;;2.90;;
4738;SDS011;2383;48.632;10.156;2023-06-04T09:41:30;6.22;;;2.70;;
4738;SDS011;2383;48.632;10.156;2023-06-04T09:45:33;3.67;;;2.47;;
4738;SDS011;2383;48.632;10.156;2023-06-04T09:49:43;3.85;;;2.90;;
4738;SDS011;2383;48.632;10.156;2023-06-04T09:53:53;6.22;;;3.75;;
4738;SDS011;2383;48.632;10.156;2023-06-04T09:57:56;6.93;;;3.13;;
4738;SDS011;2383;48.632;10.156;2023-06-04T10:02:00;5.40;;;2.80;;
4738;SDS011;2383;48.632;10.156;2023-06-04T10:06:03;6.53;;;3.30;;
4738;SDS011;2383;48.632;10.156;2023-06-04T10:10:08;5.47;;;2.92;;
4738;SDS011;2383;48.632;10.156;2023-06-04T10:18:26;6.75;;;3.90;;
4738;SDS011;2383;48.632;10.156;2023-06-04T10:22:29;4.55;;;2.80;;
4738;SDS011;2383;48.632;10.156;2023-06-04T10:26:35;4.18;;;3.00;;
4738;SDS011;2383;48.632;10.156;2023-06-04T10:30:39;4.45;;;3.03;;
4738;SDS011;2383;48.632;10.156;2023-06-04T10:34:41;5.13;;;2.95;;
4738;SDS011;2383;48.632;10.156;2023-06-04T10:38:46;4.18;;;3.03;;
4738;SDS011;2383;48.632;10.156;2023-06-04T10:42:56;6.82;;;3.50;;
4738;SDS011;2383;48.632;10.156;2023-06-04T10:47:05;4.82;;;3.40;;
4738;SDS011;2383;48.632;10.156;2023-06-04T10:51:07;7.40;;;3.30;;
4738;SDS011;2383;48.632;10.156;2023-06-04T10:55:10;3.78;;;3.20;;
4738;SDS011;2383;48.632;10.156;2023-06-04T10:59:13;8.73;;;3.78;;
4738;SDS011;2383;48.632;10.156;2023-06-04T11:03:17;4.57;;;3.28;;
4738;SDS011;2383;48.632;10.156;2023-06-04T11:07:21;3.45;;;2.92;;
4738;SDS011;2383;48.632;10.156;2023-06-04T11:11:23;6.57;;;3.60;;
4738;SDS011;2383;48.632;10.156;2023-06-04T11:15:26;6.88;;;3.50;;
4738;SDS011;2383;48.632;10.156;2023-06-04T11:19:36;7.85;;;3.53;;
4738;SDS011;2383;48.632;10.156;2023-06-04T11:23:38;4.82;;;3.33;;
4738;SDS011;2383;48.632;10.156;2023-06-04T11:27:40;4.57;;;3.10;;
4738;SDS011;2383;48.632;10.156;2023-06-04T11:31:49;7.65;;;3.55;;
4738;SDS011;2383;48.632;10.156;2023-06-04T11:35:51;6.72;;;3.28;;
4738;SDS011;2383;48.632;10.156;2023-06-04T11:39:53;4.28;;;3.25;;
4738;SDS011;2383;48.632;10.156;2023-06-04T11:43:56;6.57;;;3.10;;
4738;SDS011;2383;48.632;10.156;2023-06-04T11:47:58;4.60;;;2.88;;
4738;SDS011;2383;48.632;10.156;2023-06-04T11:52:01;4.40;;;3.22;;
4738;SDS011;2383;48.632;10.156;2023-06-04T11:56:03;5.80;;;3.25;;
4738;SDS011;2383;48.632;10.156;2023-06-04T12:00:09;7.20;;;3.13;;
4738;SDS011;2383;48.632;10.156;2023-06-04T12:08:15;4.57;;;2.90;;
4738;SDS011;2383;48.632;10.156;2023-06-04T12:12:21;4.18;;;3.13;;
4738;SDS011;2383;48.632;10.156;2023-06-04T12:16:26;8.88;;;3.20;;
4738;SDS011;2383;48.632;10.156;2023-06-04T12:24:45;5.38;;;3.47;;
4738;SDS011;2383;48.632;10.156;2023-06-04T12:28:59;4.75;;;3.58;;
4738;SDS011;2383;48.632;10.156;2023-06-04T12:33:02;5.40;;;3.47;;
4738;SDS011;2383;48.632;10.156;2023-06-04T12:37:04;3.78;;;3.38;;
4738;SDS011;2383;48.632;10.156;2023-06-04T12:41:07;6.18;;;3.10;;
4738;SDS011;2383;48.632;10.156;2023-06-04T12:45:09;6.88;;;3.85;;
4738;SDS011;2383;48.632;10.156;2023-06-04T12:49:14;5.18;;;3.60;;
4738;SDS011;2383;48.632;10.156;2023-06-04T12:53:16;4.32;;;3.13;;
4738;SDS011;2383;48.632;10.156;2023-06-04T12:57:18;5.18;;;3.55;;
4738;SDS011;2383;48.632;10.156;2023-06-04T13:01:21;7.40;;;3.83;;
4738;SDS011;2383;48.632;10.156;2023-06-04T13:05:23;4.28;;;3.80;;
4738;SDS011;2383;48.632;10.156;2023-06-04T13:09:25;5.07;;;3.53;;
4738;SDS011;2383;48.632;10.156;2023-06-04T13:13:29;6.18;;;3.70;;
4738;SDS011;2383;48.632;10.156;2023-06-04T13:17:31;5.07;;;3.85;;
4738;SDS011;2383;48.632;10.156;2023-06-04T13:21:34;5.07;;;3.88;;
4738;SDS011;2383;48.632;10.156;2023-06-04T13:25:38;6.95;;;3.40;;
4738;SDS011;2383;48.632;10.156;2023-06-04T13:29:40;4.45;;;3.60;;
4738;SDS011;2383;48.632;10.156;2023-06-04T13:33:45;4.00;;;3.60;;
4738;SDS011;2383;48.632;10.156;2023-06-04T13:37:47;5.22;;;3.80;;
4738;SDS011;2383;48.632;10.156;2023-06-04T13:41:49;10.25;;;4.47;;
4738;SDS011;2383;48.632;10.156;2023-06-04T13:45:51;9.23;;;4.32;;
4738;SDS011;2383;48.632;10.156;2023-06-04T13:49:54;4.07;;;3.65;;
4738;SDS011;2383;48.632;10.156;2023-06-04T13:53:56;10.48;;;3.90;;
4738;SDS011;2383;48.632;10.156;2023-06-04T13:57:58;4.85;;;3.80;;
4738;SDS011;2383;48.632;10.156;2023-06-04T14:02:00;6.22;;;3.85;;
4738;SDS011;2383;48.632;10.156;2023-06-04T14:06:02;6.75;;;3.53;;
4738;SDS011;2383;48.632;10.156;2023-06-04T14:10:05;4.53;;;3.92;;
4738;SDS011;2383;48.632;10.156;2023-06-04T14:14:07;6.55;;;4.32;;
4738;SDS011;2383;48.632;10.156;2023-06-04T14:18:11;7.93;;;3.88;;
4738;SDS011;2383;48.632;10.156;2023-06-04T14:22:13;7.50;;;4.13;;
4738;SDS011;2383;48.632;10.156;2023-06-04T14:26:16;9.65;;;3.85;;
4738;SDS011;2383;48.632;10.156;2023-06-04T14:30:21;5.57;;;3.88;;
4738;SDS011;2383;48.632;10.156;2023-06-04T14:34:23;6.68;;;3.53;;
4738;SDS011;2383;48.632;10.156;2023-06-04T14:38:25;9.80;;;4.22;;
4738;SDS011;2383;48.632;10.156;2023-06-04T14:42:27;6.65;;;3.85;;
4738;SDS011;2383;48.632;10.156;2023-06-04T14:46:29;4.82;;;3.92;;
4738;SDS011;2383;48.632;10.156;2023-06-04T14:50:31;7.88;;;3.65;;
4738;SDS011;2383;48.632;10.156;2023-06-04T14:54:33;5.28;;;4.15;;
4738;SDS011;2383;48.632;10.156;2023-06-04T14:58:36;8.00;;;4.03;;
4738;SDS011;2383;48.632;10.156;2023-06-04T15:02:38;6.28;;;3.60;;
4738;SDS011;2383;48.632;10.156;2023-06-04T15:06:40;6.25;;;3.65;;
4738;SDS011;2383;48.632;10.156;2023-06-04T15:10:43;6.35;;;3.53;;
4738;SDS011;2383;48.632;10.156;2023-06-04T15:14:45;7.85;;;3.97;;
4738;SDS011;2383;48.632;10.156;2023-06-04T15:18:47;3.95;;;3.25;;
4738;SDS011;2383;48.632;10.156;2023-06-04T15:22:50;8.52;;;3.92;;
4738;SDS011;2383;48.632;10.156;2023-06-04T15:26:52;6.30;;;3.88;;
4738;SDS011;2383;48.632;10.156;2023-06-04T15:30:54;6.38;;;3.90;;
4738;SDS011;2383;48.632;10.156;2023-06-04T15:34:56;6.85;;;4.07;;
4738;SDS011;2383;48.632;10.156;2023-06-04T15:38:59;4.80;;;3.50;;
4738;SDS011;2383;48.632;10.156;2023-06-04T15:43:01;4.45;;;3.60;;
4738;SDS011;2383;48.632;10.156;2023-06-04T15:47:03;7.40;;;3.65;;
4738;SDS011;2383;48.632;10.156;2023-06-04T15:51:06;7.47;;;4.00;;
4738;SDS011;2383;48.632;10.156;2023-06-04T15:55:08;6.35;;;4.07;;
4738;SDS011;2383;48.632;10.156;2023-06-04T15:59:10;5.63;;;4.75;;
4738;SDS011;2383;48.632;10.156;2023-06-04T16:03:12;3.85;;;3.45;;
4738;SDS011;2383;48.632;10.156;2023-06-04T16:07:14;7.90;;;5.25;;
4738;SDS011;2383;48.632;10.156;2023-06-04T16:11:17;6.93;;;4.82;;
4738;SDS011;2383;48.632;10.156;2023-06-04T16:15:19;6.40;;;4.25;;
4738;SDS011;2383;48.632;10.156;2023-06-04T16:19:21;5.60;;;3.65;;
4738;SDS011;2383;48.632;10.156;2023-06-04T16:23:26;4.00;;;3.60;;
4738;SDS011;2383;48.632;10.156;2023-06-04T16:27:28;7.10;;;4.55;;
4738;SDS011;2383;48.632;10.156;2023-06-04T16:31:31;7.72;;;4.72;;
4738;SDS011;2383;48.632;10.156;2023-06-04T16:35:33;7.57;;;4.65;;
4738;SDS011;2383;48.632;10.156;2023-06-04T16:39:35;5.85;;;4.03;;
4738;SDS011;2383;48.632;10.156;2023-06-04T16:43:37;6.45;;;4.25;;
4738;SDS011;2383;48.632;10.156;2023-06-04T16:47:39;6.57;;;3.38;;
4738;SDS011;2383;48.632;10.156;2023-06-04T16:51:44;4.07;;;3.67;;
4738;SDS011;2383;48.632;10.156;2023-06-04T16:55:46;8.07;;;3.78;;
4738;SDS011;2383;48.632;10.156;2023-06-04T16:59:48;8.30;;;4.70;;
4738;SDS011;2383;48.632;10.156;2023-06-04T17:03:50;6.95;;;3.75;;
4738;SDS011;2383;48.632;10.156;2023-06-04T17:07:53;5.70;;;3.50;;
4738;SDS011;2383;48.632;10.156;2023-06-04T17:11:55;7.25;;;4.47;;
4738;SDS011;2383;48.632;10.156;2023-06-04T17:15:57;10.50;;;4.13;;
4738;SDS011;2383;48.632;10.156;2023-06-04T17:19:59;4.57;;;3.65;;
4738;SDS011;2383;48.632;10.156;2023-06-04T17:24:01;5.43;;;3.50;;
4738;SDS011;2383;48.632;10.156;2023-06-04T17:28:04;7.65;;;3.35;;
4738;SDS011;2383;48.632;10.156;2023-06-04T17:32:06;4.47;;;3.35;;
4738;SDS011;2383;48.632;10.156;2023-06-04T17:36:08;7.72;;;3.70;;
4738;SDS011;2383;48.632;10.156;2023-06-04T17:40:10;5.05;;;3.38;;
4738;SDS011;2383;48.632;10.156;2023-06-04T17:44:13;4.93;;;3.53;;
4738;SDS011;2383;48.632;10.156;2023-06-04T17:48:17;8.25;;;3.42;;
4738;SDS011;2383;48.632;10.156;2023-06-04T17:52:19;4.15;;;3.15;;
4738;SDS011;2383;48.632;10.156;2023-06-04T17:56:21;7.95;;;3.90;;
4738;SDS011;2383;48.632;10.156;2023-06-04T18:00:23;5.30;;;3.60;;
4738;SDS011;2383;48.632;10.156;2023-06-04T18:04:25;5.35;;;3.28;;
4738;SDS011;2383;48.632;10.156;2023-06-04T18:08:28;5.70;;;3.30;;
4738;SDS011;2383;48.632;10.156;2023-06-04T18:12:30;11.43;;;3.50;;
4738;SDS011;2383;48.632;10.156;2023-06-04T18:16:35;6.97;;;3.38;;
4738;SDS011;2383;48.632;10.156;2023-06-04T18:20:37;6.10;;;3.50;;
4738;SDS011;2383;48.632;10.156;2023-06-04T18:24:40;5.95;;;3.13;;
4738;SDS011;2383;48.632;10.156;2023-06-04T18:28:42;5.15;;;3.10;;
4738;SDS011;2383;48.632;10.156;2023-06-04T18:32:44;14.05;;;3.72;;
4738;SDS011;2383;48.632;10.156;2023-06-04T18:36:49;8.93;;;3.60;;
4738;SDS011;2383;48.632;10.156;2023-06-04T18:40:54;5.38;;;3.40;;
4738;SDS011;2383;48.632;10.156;2023-06-04T18:44:57;5.22;;;3.40;;
4738;SDS011;2383;48.632;10.156;2023-06-04T18:49:01;5.50;;;3.53;;
4738;SDS011;2383;48.632;10.156;2023-06-04T18:53:04;6.13;;;3.78;;
4738;SDS011;2383;48.632;10.156;2023-06-04T18:57:06;7.32;;;3.78;;
4738;SDS011;2383;48.632;10.156;2023-06-04T19:01:09;5.13;;;3.13;;
4738;SDS011;2383;48.632;10.156;2023-06-04T19:05:11;5.20;;;3.53;;
4738;SDS011;2383;48.632;10.156;2023-06-04T19:09:13;3.60;;;3.00;;
4738;SDS011;2383;48.632;10.156;2023-06-04T19:13:16;6.00;;;3.25;;
4738;SDS011;2383;48.632;10.156;2023-06-04T19:17:18;4.10;;;3.10;;
4738;SDS011;2383;48.632;10.156;2023-06-04T19:21:22;3.60;;;3.08;;
4738;SDS011;2383;48.632;10.156;2023-06-04T19:25:24;6.35;;;3.60;;
4738;SDS011;2383;48.632;10.156;2023-06-04T19:29:26;8.32;;;3.72;;
4738;SDS011;2383;48.632;10.156;2023-06-04T19:33:28;7.28;;;3.45;;
4738;SDS011;2383;48.632;10.156;2023-06-04T19:37:34;14.63;;;4.13;;
4738;SDS011;2383;48.632;10.156;2023-06-04T19:41:36;6.43;;;3.70;;
4738;SDS011;2383;48.632;10.156;2023-06-04T19:45:38;6.72;;;3.88;;
4738;SDS011;2383;48.632;10.156;2023-06-04T19:49:40;6.68;;;3.65;;
4738;SDS011;2383;48.632;10.156;2023-06-04T19:53:43;6.13;;;3.67;;
4738;SDS011;2383;48.632;10.156;2023-06-04T19:57:45;6.63;;;4.00;;
4738;SDS011;2383;48.632;10.156;2023-06-04T20:01:48;13.85;;;4.22;;
4738;SDS011;2383;48.632;10.156;2023-06-04T20:05:50;7.78;;;4.40;;
4738;SDS011;2383;48.632;10.156;2023-06-04T20:09:53;7.32;;;4.82;;
4738;SDS011;2383;48.632;10.156;2023-06-04T20:13:55;6.28;;;4.35;;
4738;SDS011;2383;48.632;10.156;2023-06-04T20:17:58;7.50;;;3.97;;
4738;SDS011;2383;48.632;10.156;2023-06-04T20:22:00;5.35;;;3.78;;
4738;SDS011;2383;48.632;10.156;2023-06-04T20:26:03;10.05;;;3.97;;
4738;SDS011;2383;48.632;10.156;2023-06-04T20:30:05;4.72;;;3.95;;
4738;SDS011;2383;48.632;10.156;2023-06-04T20:34:08;5.53;;;3.53;;
4738;SDS011;2383;48.632;10.156;2023-06-04T20:38:09;5.80;;;3.65;;
4738;SDS011;2383;48.632;10.156;2023-06-04T20:42:12;4.95;;;3.40;;
4738;SDS011;2383;48.632;10.156;2023-06-04T20:46:14;4.88;;;3.78;;
4738;SDS011;2383;48.632;10.156;2023-06-04T20:50:17;6.03;;;3.63;;
4738;SDS011;2383;48.632;10.156;2023-06-04T20:54:19;3.88;;;3.47;;
4738;SDS011;2383;48.632;10.156;2023-06-04T20:58:21;4.63;;;3.00;;
4738;SDS011;2383;48.632;10.156;2023-06-04T21:02:23;4.85;;;3.45;;
4738;SDS011;2383;48.632;10.156;2023-06-04T21:06:25;4.53;;;3.35;;
4738;SDS011;2383;48.632;10.156;2023-06-04T21:10:27;4.55;;;3.58;;
4738;SDS011;2383;48.632;10.156;2023-06-04T21:14:29;5.45;;;3.28;;
4738;SDS011;2383;48.632;10.156;2023-06-04T21:18:31;4.30;;;3.20;;
4738;SDS011;2383;48.632;10.156;2023-06-04T21:22:33;8.18;;;3.65;;
4738;SDS011;2383;48.632;10.156;2023-06-04T21:26:36;8.35;;;3.83;;
4738;SDS011;2383;48.632;10.156;2023-06-04T21:30:38;6.18;;;3.47;;
4738;SDS011;2383;48.632;10.156;2023-06-04T21:34:40;4.47;;;3.53;;
4738;SDS011;2383;48.632;10.156;2023-06-04T21:38:42;4.13;;;3.28;;
4738;SDS011;2383;48.632;10.156;2023-06-04T21:42:44;5.13;;;3.35;;
4738;SDS011;2383;48.632;10.156;2023-06-04T21:46:46;5.60;;;3.30;;
4738;SDS011;2383;48.632;10.156;2023-06-04T21:50:49;4.93;;;3.20;;
4738;SDS011;2383;48.632;10.156;2023-06-04T21:54:51;4.10;;;3.22;;
4738;SDS011;2383;48.632;10.156;2023-06-04T21:58:53;6.15;;;3.00;;
4738;SDS011;2383;48.632;10.156;2023-06-04T22:02:55;6.32;;;3.60;;
4738;SDS011;2383;48.632;10.156;2023-06-04T22:06:57;6.88;;;3.40;;
4738;SDS011;2383;48.632;10.156;2023-06-04T22:11:01;8.20;;;3.40;;
4738;SDS011;2383;48.632;10.156;2023-06-04T22:15:03;7.57;;;3.55;;
4738;SDS011;2383;48.632;10.156;2023-06-04T22:19:05;4.90;;;3.60;;
4738;SDS011;2383;48.632;10.156;2023-06-04T22:23:07;3.03;;;2.72;;
4738;SDS011;2383;48.632;10.156;2023-06-04T22:27:09;3.65;;;3.30;;
4738;SDS011;2383;48.632;10.156;2023-06-04T22:31:11;3.95;;;3.05;;
4738;SDS011;2383;48.632;10.156;2023-06-04T22:35:13;6.68;;;3.47;;
4738;SDS011;2383;48.632;10.156;2023-06-04T22:39:15;5.05;;;3.72;;
4738;SDS011;2383;48.632;10.156;2023-06-04T22:43:18;5.25;;;3.78;;
4738;SDS011;2383;48.632;10.156;2023-06-04T22:47:20;7.90;;;3.60;;
4738;SDS011;2383;48.632;10.156;2023-06-04T22:51:23;6.00;;;3.67;;
4738;SDS011;2383;48.632;10.156;2023-06-04T22:55:25;4.30;;;3.55;;
4738;SDS011;2383;48.632;10.156;2023-06-04T22:59:27;5.45;;;3.42;;
4738;SDS011;2383;48.632;10.156;2023-06-04T23:03:29;6.03;;;3.75;;
4738;SDS011;2383;48.632;10.156;2023-06-04T23:07:32;5.13;;;3.40;;
4738;SDS011;2383;48.632;10.156;2023-06-04T23:11:34;5.10;;;3.70;;
4738;SDS011;2383;48.632;10.156;2023-06-04T23:15:36;5.35;;;3.75;;
4738;SDS011;2383;48.632;10.156;2023-06-04T23:19:38;4.13;;;3.65;;
4738;SDS011;2383;48.632;10.156;2023-06-04T23:23:40;4.05;;;3.65;;
4738;SDS011;2383;48.632;10.156;2023-06-04T23:27:42;4.78;;;3.83;;
4738;SDS011;2383;48.632;10.156;2023-06-04T23:31:46;4.88;;;3.30;;
4738;SDS011;2383;48.632;10.156;2023-06-04T23:35:48;5.95;;;3.83;;
4738;SDS011;2383;48.632;10.156;2023-06-04T23:39:50;4.90;;;3.53;;
4738;SDS011;2383;48.632;10.156;2023-06-04T23:43:53;5.38;;;3.58;;
4738;SDS011;2383;48.632;10.156;2023-06-04T23:47:55;7.15;;;3.40;;
4738;SDS011;2383;48.632;10.156;2023-06-04T23:51:57;4.65;;;3.42;;
4738;SDS011;2383;48.632;10.156;2023-06-04T23:56:00;3.95;;;3.30;;
